KUIN/UIN METAR and TAF weather

Enter ICAO airport designator
Station Type Date Time Source
KUIN METAR 2022/01/26 20:54 UTC NOAA

KUIN 262054Z AUTO 20009KT 10SM CLR M07/M16 A3036 RMK AO2 SLP295 T10721161 56035 TSNO


Station Type Date Time Source
KUIN Decoded METAR 2022/01/26 20:54 UTC NOAA

QUINCY MUNI. BALDWIN FIELD, IL, United States (KUIN) 39-56N 091-12W
Jan 26, 2022 - 03:54 PM EST / 2022.01.26 2054 UTC
Wind: from the SSW (200 degrees) at 10 MPH (9 KT):0
Visibility: 10 mile(s):0
Sky conditions: clear
Temperature: 19.0 F (-7.2 C)
Windchill: 6 F (-14 C):1
Dew Point: 3.0 F (-16.1 C)
Relative Humidity: 48%
Pressure (altimeter): 30.36 in. Hg (1028 hPa)
Pressure tendency: 0.10 inches (3.5 hPa) lower than three hours ago
ob: KUIN 262054Z AUTO 20009KT 10SM CLR M07/M16 A3036 RMK AO2 SLP295 T10721161 56035 TSNO
cycle: 21

Station Type Date Time Source
KUIN TAF 2022/01/26 18:39 UTC NOAA

KUIN 261735Z 2618/2718 22006KT P6SM SKC
FM270300 18010G16KT P6SM FEW250
FM271000 21010G18KT P6SM BKN070
FM271500 24011G20KT P6SM BKN250

Example: see airport list